Terminal Aerodrome Forecast
Issued by NWS

Home | Current Version | Previous Version | Text Only | Print | Product List | Glossary On
Versions: 1 2 3 4 5 6 7 8 9 10 11 12 13 14
000
FTUS41 KBTV 311720
TAFPBG
TAF
KPBG 311720Z 3118/0118 27011G18KT P6SM SCT250
     FM312100 31012KT P6SM BKN050
     FM010200 31005KT P6SM SCT140
     FM011300 02004KT P6SM FEW250=

USA.gov is the U.S. government's official web portal to all federal, state and local government web resources and services.